Time;durP1;ratioP1;P1;durP2;ratioP2;P2;SDS_P1;SDS_P2;PMS_P1;PMS_P2;Temp;Humidity;BMP_temperature;BMP_pressure;BME280_temperature;BME280_humidity;BME280_pressure;Samples;Min_cycle;Max_cycle;Signal;HPM_P1;HPM_P2
2021/03/09 00:00:24;;;;;;;64.82;34.88;;;3.40;98.60;;;;;;5026632;28;20069;-79
2021/03/09 00:02:50;;;;;;;69.32;32.90;;;3.40;98.70;;;;;;5022551;28;20046;-79
2021/03/09 00:05:16;;;;;;;54.33;29.85;;;3.40;98.70;;;;;;5029143;28;20129;-79
2021/03/09 00:07:42;;;;;;;56.08;29.73;;;3.40;98.70;;;;;;5014055;28;20143;-79
2021/03/09 00:10:09;;;;;;;68.07;32.72;;;3.40;98.80;;;;;;5026639;28;20049;-79
2021/03/09 00:12:35;;;;;;;55.83;28.67;;;3.30;98.70;;;;;;5034924;28;20045;-79
2021/03/09 00:15:01;;;;;;;49.90;27.48;;;3.30;98.80;;;;;;5026084;28;20060;-79
2021/03/09 00:17:27;;;;;;;65.75;32.75;;;3.40;98.90;;;;;;5026811;28;20057;-78
2021/03/09 00:19:53;;;;;;;53.53;28.95;;;3.40;98.80;;;;;;5029545;28;20101;-78
2021/03/09 00:22:19;;;;;;;48.50;27.90;;;3.30;98.80;;;;;;5014650;28;20157;-79
2021/03/09 00:24:44;;;;;;;65.50;31.25;;;3.30;99.10;;;;;;5025369;28;20033;-79
2021/03/09 00:27:10;;;;;;;65.57;32.75;;;3.40;98.80;;;;;;5024759;28;20084;-79
2021/03/09 00:29:37;;;;;;;65.95;32.22;;;3.40;98.80;;;;;;5019577;28;20128;-79
2021/03/09 00:32:05;;;;;;;70.30;33.63;;;3.40;98.80;;;;;;5030216;28;20125;-79
2021/03/09 00:34:31;;;;;;;56.55;30.92;;;3.40;98.90;;;;;;5031559;28;20060;-79
2021/03/09 00:36:57;;;;;;;66.97;34.10;;;3.40;98.90;;;;;;5027401;28;20034;-79
2021/03/09 00:39:23;;;;;;;43.70;22.33;;;3.30;98.90;;;;;;5013749;28;20054;-79
2021/03/09 00:41:49;;;;;;;67.35;33.45;;;3.40;99.00;;;;;;5017803;28;20046;-79
2021/03/09 00:44:14;;;;;;;71.32;33.95;;;3.30;99.30;;;;;;5024972;28;20046;-79
2021/03/09 00:46:40;;;;;;;63.03;31.00;;;3.30;99.40;;;;;;5022814;28;20083;-79
2021/03/09 00:49:06;;;;;;;67.20;31.95;;;3.30;99.20;;;;;;5031475;28;20037;-79
2021/03/09 00:51:32;;;;;;;76.55;34.55;;;3.30;99.10;;;;;;5022024;28;20038;-79
2021/03/09 00:53:57;;;;;;;72.97;32.28;;;3.30;99.10;;;;;;5033462;28;20108;-79
2021/03/09 00:56:23;;;;;;;63.45;31.13;;;3.30;99.10;;;;;;5022815;28;20038;-79
2021/03/09 00:58:49;;;;;;;61.50;31.50;;;3.30;99.10;;;;;;5024217;28;20037;-79
2021/03/09 01:01:15;;;;;;;76.55;34.55;;;3.30;99.10;;;;;;5038676;28;20152;-79
2021/03/09 01:03:40;;;;;;;80.38;36.15;;;3.30;99.20;;;;;;5022332;28;20045;-79
2021/03/09 01:06:06;;;;;;;81.00;35.72;;;3.30;99.20;;;;;;5024087;28;20034;-79
2021/03/09 01:08:32;;;;;;;87.75;36.58;;;3.30;99.20;;;;;;5020156;28;20050;-79
2021/03/09 01:10:58;;;;;;;75.10;34.55;;;3.30;99.30;;;;;;5025414;28;20056;-79
2021/03/09 01:13:24;;;;;;;72.22;32.65;;;3.30;99.30;;;;;;5023776;28;20112;-79
2021/03/09 01:15:50;;;;;;;54.92;29.15;;;3.40;99.30;;;;;;5034792;28;20053;-79
2021/03/09 01:18:16;;;;;;;66.53;31.98;;;3.30;99.30;;;;;;5030612;28;20052;-79
2021/03/09 01:20:41;;;;;;;73.97;32.55;;;3.40;99.30;;;;;;5028469;28;20140;-79
2021/03/09 01:23:07;;;;;;;63.80;32.05;;;3.30;99.30;;;;;;5036845;28;20525;-79
2021/03/09 01:25:33;;;;;;;49.75;27.88;;;3.30;99.30;;;;;;5030790;28;20053;-79
2021/03/09 01:27:59;;;;;;;53.65;28.13;;;3.40;99.40;;;;;;5033283;28;20060;-79
2021/03/09 01:30:25;;;;;;;59.65;29.63;;;3.40;99.30;;;;;;5035005;28;20102;-79
2021/03/09 01:32:51;;;;;;;53.22;27.40;;;3.40;99.30;;;;;;5020665;28;20111;-79
2021/03/09 01:35:17;;;;;;;49.17;26.23;;;3.40;99.40;;;;;;5025265;28;20029;-79
2021/03/09 01:37:43;;;;;;;47.72;24.08;;;3.40;99.40;;;;;;5028393;28;20147;-79
2021/03/09 01:40:11;;;;;;;59.33;27.50;;;3.40;99.30;;;;;;5036084;28;20469;-79
2021/03/09 01:42:38;;;;;;;52.55;25.98;;;3.40;99.40;;;;;;5034569;28;20045;-80
2021/03/09 01:45:05;;;;;;;51.97;25.85;;;3.40;99.40;;;;;;5037726;28;20041;-80
2021/03/09 01:47:32;;;;;;;54.97;25.75;;;3.40;99.40;;;;;;5034164;28;20033;-80
2021/03/09 01:49:59;;;;;;;48.58;25.20;;;3.40;99.40;;;;;;5036883;28;20057;-80
2021/03/09 01:52:26;;;;;;;64.00;26.98;;;3.40;99.40;;;;;;5032111;28;20113;-80
2021/03/09 01:54:52;;;;;;;49.20;25.50;;;3.40;99.40;;;;;;5015465;28;20041;-77
2021/03/09 01:57:18;;;;;;;46.60;22.40;;;3.50;99.50;;;;;;5025040;28;20390;-77
2021/03/09 01:59:44;;;;;;;48.70;24.83;;;3.40;99.50;;;;;;5029056;28;20038;-78
2021/03/09 02:02:10;;;;;;;52.97;25.45;;;3.40;99.50;;;;;;5023818;28;20038;-78
2021/03/09 02:04:37;;;;;;;55.42;25.13;;;3.50;99.50;;;;;;5029611;28;20041;-79
2021/03/09 02:07:03;;;;;;;53.63;25.92;;;3.50;99.50;;;;;;5031812;28;20055;-79
2021/03/09 02:09:29;;;;;;;65.93;27.50;;;3.50;99.50;;;;;;5022576;28;20073;-79
2021/03/09 02:12:05;;;;;;;59.90;26.70;;;3.50;99.50;;;;;;5028074;28;20111;-78
2021/03/09 02:14:56;;;;;;;52.05;25.25;;;3.50;99.50;;;;;;5043637;28;20037;-78
2021/03/09 02:17:35;;;;;;;60.60;27.02;;;3.50;99.40;;;;;;5022746;28;20072;-78
2021/03/09 02:20:07;;;;;;;46.50;24.85;;;3.50;99.50;;;;;;5032014;28;20041;-79
2021/03/09 02:22:53;;;;;;;68.55;27.33;;;3.50;99.60;;;;;;5042559;28;20421;-78
2021/03/09 02:26:03;;;;;;;64.55;27.38;;;3.50;99.60;;;;;;5030689;28;20042;-79
2021/03/09 02:28:47;;;;;;;52.08;24.83;;;3.50;99.50;;;;;;5024349;28;20045;-78
2021/03/09 02:31:14;;;;;;;49.58;22.95;;;3.50;99.60;;;;;;5021370;28;20044;-78
2021/03/09 02:33:46;;;;;;;55.30;25.75;;;3.50;99.80;;;;;;5014579;28;20040;-78
2021/03/09 02:36:19;;;;;;;52.35;24.77;;;3.50;99.70;;;;;;5027739;28;20038;-79
2021/03/09 02:39:00;;;;;;;47.60;24.58;;;3.50;99.70;;;;;;5021578;28;20041;-78
2021/03/09 02:41:29;;;;;;;73.80;28.70;;;3.50;99.70;;;;;;5019265;28;20033;-78
2021/03/09 02:43:56;;;;;;;44.88;23.48;;;3.50;99.70;;;;;;5023440;28;20037;-78
2021/03/09 02:46:25;;;;;;;51.55;24.25;;;3.50;99.70;;;;;;5030509;28;20064;-78
2021/03/09 02:48:53;;;;;;;52.03;25.17;;;3.60;99.70;;;;;;5022389;28;20382;-78
2021/03/09 02:51:22;;;;;;;53.03;25.80;;;3.60;99.80;;;;;;5015713;28;20714;-78
2021/03/09 02:53:51;;;;;;;55.40;27.23;;;3.60;99.80;;;;;;5033337;28;20041;-79
2021/03/09 02:56:21;;;;;;;49.17;25.23;;;3.60;99.80;;;;;;5012265;28;20145;-79
2021/03/09 02:58:50;;;;;;;57.10;27.33;;;3.60;99.80;;;;;;5032412;28;20417;-79
2021/03/09 03:01:17;;;;;;;70.55;28.25;;;3.60;99.70;;;;;;5026183;28;20044;-80
2021/03/09 03:03:45;;;;;;;63.83;28.85;;;3.60;99.70;;;;;;5018942;28;20494;-79
2021/03/09 03:06:11;;;;;;;54.80;26.10;;;3.60;99.70;;;;;;5018996;28;20034;-79
2021/03/09 03:08:38;;;;;;;54.50;25.83;;;3.60;99.80;;;;;;5017360;28;20034;-79
2021/03/09 03:11:05;;;;;;;64.93;26.13;;;3.60;99.80;;;;;;5023502;28;20081;-79
2021/03/09 03:13:35;;;;;;;60.92;26.95;;;3.60;99.80;;;;;;5033645;28;20061;-79
2021/03/09 03:16:02;;;;;;;57.63;26.85;;;3.60;99.90;;;;;;5024795;28;20053;-79
2021/03/09 03:18:34;;;;;;;67.75;28.80;;;3.60;99.90;;;;;;5024184;28;20045;-79
2021/03/09 03:21:03;;;;;;;63.85;28.38;;;3.70;99.90;;;;;;5041806;28;20085;-79
2021/03/09 03:23:30;;;;;;;64.15;28.70;;;3.60;99.90;;;;;;5031685;28;20033;-79
2021/03/09 03:25:58;;;;;;;64.15;29.75;;;3.60;99.90;;;;;;5015537;28;20469;-79
2021/03/09 03:28:24;;;;;;;78.72;32.85;;;3.70;99.90;;;;;;5015537;28;20393;-79
2021/03/09 03:30:50;;;;;;;69.22;29.38;;;3.70;99.80;;;;;;5021450;28;20037;-80
2021/03/09 03:33:17;;;;;;;93.75;34.47;;;3.60;99.80;;;;;;5026954;28;20121;-79
2021/03/09 03:35:44;;;;;;;71.47;31.20;;;3.70;99.80;;;;;;5023510;28;20037;-79
2021/03/09 03:38:14;;;;;;;85.97;33.88;;;3.70;99.90;;;;;;5018366;28;20386;-79
2021/03/09 03:40:41;;;;;;;72.35;32.35;;;3.70;99.90;;;;;;5028029;28;20124;-79
2021/03/09 03:43:07;;;;;;;81.97;33.53;;;3.70;99.90;;;;;;5024426;28;20052;-79
2021/03/09 03:45:33;;;;;;;68.43;30.98;;;3.70;99.90;;;;;;5030065;28;20034;-79
2021/03/09 03:48:00;;;;;;;66.38;31.42;;;3.70;99.90;;;;;;5026370;28;20041;-79
2021/03/09 03:50:26;;;;;;;83.63;34.75;;;3.70;99.90;;;;;;5018872;28;20076;-79
2021/03/09 03:53:13;;;;;;;68.97;31.92;;;3.70;99.90;;;;;;5024173;28;20505;-79
2021/03/09 03:56:05;;;;;;;79.65;31.75;;;3.70;99.90;;;;;;5033258;28;20043;-78
2021/03/09 03:58:36;;;;;;;71.13;32.65;;;3.70;99.90;;;;;;5001180;28;20041;-79
2021/03/09 04:01:05;;;;;;;75.45;33.45;;;3.70;99.90;;;;;;5020073;28;20048;-78
2021/03/09 04:03:33;;;;;;;67.93;32.72;;;3.70;99.90;;;;;;5034449;28;20042;-78
2021/03/09 04:06:03;;;;;;;80.07;33.50;;;3.70;99.90;;;;;;5026426;28;20068;-78
2021/03/09 04:08:30;;;;;;;92.18;35.38;;;3.70;99.90;;;;;;5024343;28;20114;-80
2021/03/09 04:10:56;;;;;;;74.53;33.75;;;3.70;99.90;;;;;;5019627;28;20057;-78
2021/03/09 04:13:24;;;;;;;94.28;35.70;;;3.80;99.90;;;;;;5025806;28;20103;-79
2021/03/09 04:15:51;;;;;;;96.10;37.60;;;3.80;99.90;;;;;;5029445;28;20049;-79
2021/03/09 04:18:18;;;;;;;103.65;37.38;;;3.80;99.90;;;;;;5019198;28;20481;-79
2021/03/09 04:20:45;;;;;;;129.40;40.53;;;3.80;99.90;;;;;;5016347;28;20073;-79
2021/03/09 04:23:12;;;;;;;121.63;39.60;;;3.80;99.90;;;;;;5022256;28;20923;-79
2021/03/09 04:25:40;;;;;;;89.35;36.38;;;3.80;99.90;;;;;;5034092;28;20040;-78
2021/03/09 04:28:07;;;;;;;126.68;40.72;;;3.80;99.90;;;;;;5017973;28;20122;-78
2021/03/09 04:30:33;;;;;;;109.68;39.35;;;3.90;99.90;;;;;;5016823;28;20050;-78
2021/03/09 04:33:00;;;;;;;93.60;39.72;;;3.80;99.90;;;;;;5019681;28;20042;-80
2021/03/09 04:35:27;;;;;;;115.70;39.17;;;3.90;99.90;;;;;;5024422;28;20054;-79
2021/03/09 04:37:54;;;;;;;107.05;38.28;;;3.90;99.90;;;;;;5029441;28;20037;-80
2021/03/09 04:40:20;;;;;;;90.03;37.65;;;3.90;99.90;;;;;;5034616;28;20030;-80
2021/03/09 04:42:46;;;;;;;129.77;43.53;;;3.90;99.90;;;;;;5035653;28;20080;-79
2021/03/09 04:45:13;;;;;;;99.72;39.40;;;3.90;99.90;;;;;;5024379;28;20061;-79
2021/03/09 04:47:38;;;;;;;109.50;40.47;;;3.90;99.90;;;;;;5025264;28;20033;-79
2021/03/09 04:50:08;;;;;;;119.28;41.33;;;4.00;99.90;;;;;;5013571;28;20038;-78
2021/03/09 04:52:34;;;;;;;162.80;45.53;;;4.00;99.90;;;;;;5037528;28;20049;-78
2021/03/09 04:55:04;;;;;;;146.25;45.30;;;4.00;99.90;;;;;;5023853;28;20436;-78
2021/03/09 04:57:42;;;;;;;144.73;43.85;;;4.00;99.90;;;;;;5016826;28;20042;-78
2021/03/09 05:00:20;;;;;;;122.15;42.95;;;4.00;99.90;;;;;;5020509;28;20033;-79
2021/03/09 05:02:47;;;;;;;109.72;41.05;;;4.00;99.90;;;;;;5015918;28;20034;-78
2021/03/09 05:05:18;;;;;;;130.32;43.47;;;4.10;99.90;;;;;;5021249;28;20041;-78
2021/03/09 05:07:44;;;;;;;123.07;43.72;;;4.10;99.90;;;;;;5024178;28;20038;-77
2021/03/09 05:10:12;;;;;;;115.90;43.15;;;4.10;99.90;;;;;;5015145;28;20038;-78
2021/03/09 05:12:49;;;;;;;112.75;43.58;;;4.10;99.90;;;;;;5010728;28;20059;-78
2021/03/09 05:15:15;;;;;;;150.63;47.35;;;4.20;99.90;;;;;;5020173;28;20159;-78
2021/03/09 05:17:42;;;;;;;137.82;46.28;;;4.20;99.90;;;;;;5033703;28;20060;-78
2021/03/09 05:20:10;;;;;;;149.95;49.00;;;4.20;99.90;;;;;;5011199;28;20037;-78
2021/03/09 05:22:37;;;;;;;156.63;49.78;;;4.30;99.90;;;;;;5030541;28;20042;-78
2021/03/09 05:25:05;;;;;;;151.75;50.00;;;4.30;99.90;;;;;;5021752;28;20038;-77
2021/03/09 05:27:31;;;;;;;188.77;54.42;;;4.30;99.90;;;;;;5016250;28;20030;-77
2021/03/09 05:29:57;;;;;;;159.93;51.50;;;4.30;99.90;;;;;;5021671;28;20538;-79
2021/03/09 05:32:22;;;;;;;210.45;57.25;;;4.30;99.90;;;;;;5014507;28;20200;-78
2021/03/09 05:34:48;;;;;;;220.43;57.92;;;4.40;99.90;;;;;;5013185;28;20056;-77
2021/03/09 05:37:15;;;;;;;154.52;52.47;;;4.40;99.90;;;;;;5036082;28;20096;-78
2021/03/09 05:39:42;;;;;;;235.85;58.17;;;4.40;99.90;;;;;;5026403;28;20108;-79
2021/03/09 05:42:08;;;;;;;185.73;57.85;;;4.40;99.90;;;;;;5022517;28;20072;-79
2021/03/09 05:44:37;;;;;;;255.18;61.45;;;4.40;99.90;;;;;;5021691;28;20073;-80
2021/03/09 05:47:04;;;;;;;254.05;62.28;;;4.40;99.90;;;;;;5024138;28;20132;-79
2021/03/09 05:49:30;;;;;;;260.77;62.83;;;4.50;99.90;;;;;;5038673;28;20045;-80
2021/03/09 05:51:57;;;;;;;349.83;71.22;;;4.50;99.90;;;;;;5031523;28;20042;-80
2021/03/09 05:54:23;;;;;;;231.07;65.30;;;4.50;99.90;;;;;;5022584;28;20355;-80
2021/03/09 05:56:49;;;;;;;345.70;69.97;;;4.60;99.90;;;;;;5018442;28;20388;-80
2021/03/09 05:59:16;;;;;;;233.48;62.08;;;4.60;99.90;;;;;;5038427;28;20037;-79
2021/03/09 06:01:41;;;;;;;319.77;66.10;;;4.60;99.90;;;;;;5034428;28;20047;-79
2021/03/09 06:04:07;;;;;;;324.00;68.20;;;4.60;99.90;;;;;;5034588;28;20494;-79
2021/03/09 06:06:34;;;;;;;271.58;62.70;;;4.70;99.90;;;;;;5035720;28;20046;-79
2021/03/09 06:09:01;;;;;;;314.55;65.60;;;4.60;99.90;;;;;;5029352;28;20041;-79
2021/03/09 06:11:27;;;;;;;312.10;67.20;;;4.70;99.90;;;;;;5029216;28;20053;-79
2021/03/09 06:13:54;;;;;;;300.20;64.13;;;4.70;99.90;;;;;;5016696;28;20049;-77
2021/03/09 06:16:20;;;;;;;359.25;68.97;;;4.70;99.90;;;;;;5012578;28;20046;-77
2021/03/09 06:18:57;;;;;;;333.10;65.85;;;4.70;99.90;;;;;;5035281;28;20042;-76
2021/03/09 06:21:24;;;;;;;267.25;61.03;;;4.80;99.90;;;;;;5031829;28;20113;-76
2021/03/09 06:23:51;;;;;;;336.60;69.45;;;4.80;99.90;;;;;;5028131;28;20121;-77
2021/03/09 06:26:36;;;;;;;338.92;66.72;;;4.90;99.90;;;;;;5013170;28;20497;-77
2021/03/09 06:29:09;;;;;;;429.33;74.07;;;4.80;99.90;;;;;;5035719;28;20052;-77
2021/03/09 06:31:35;;;;;;;445.35;74.55;;;4.80;99.90;;;;;;5017241;28;20120;-78
2021/03/09 06:34:40;;;;;;;503.40;79.65;;;4.90;99.90;;;;;;5023000;28;20041;-78
2021/03/09 06:37:22;;;;;;;537.15;80.45;;;4.90;99.90;;;;;;4994969;28;20054;-78
2021/03/09 06:40:02;;;;;;;599.40;90.13;;;4.90;99.90;;;;;;5008042;28;20077;-78
2021/03/09 06:42:38;;;;;;;491.27;77.80;;;5.00;99.90;;;;;;5012911;28;20060;-80
2021/03/09 06:45:11;;;;;;;499.75;77.93;;;5.00;99.90;;;;;;5009173;28;20086;-77
2021/03/09 06:47:47;;;;;;;492.17;73.22;;;5.00;99.90;;;;;;5017667;28;20057;-79
2021/03/09 06:50:33;;;;;;;663.65;85.20;;;5.10;99.90;;;;;;5031232;28;20045;-79
2021/03/09 06:53:00;;;;;;;668.65;84.75;;;5.10;99.90;;;;;;5025275;28;20057;-78
2021/03/09 06:55:31;;;;;;;626.97;82.57;;;5.10;99.90;;;;;;5024639;28;20083;-79
2021/03/09 06:58:28;;;;;;;593.08;81.10;;;5.10;99.90;;;;;;5024972;28;20053;-79
2021/03/09 07:00:55;;;;;;;687.75;82.57;;;5.20;99.90;;;;;;5024020;28;20054;-79
2021/03/09 07:03:33;;;;;;;575.17;73.60;;;5.20;99.90;;;;;;5025636;28;20034;-79
2021/03/09 07:05:59;;;;;;;667.10;79.35;;;5.20;99.90;;;;;;5024910;28;20061;-79
2021/03/09 07:08:26;;;;;;;666.40;79.00;;;5.30;99.90;;;;;;5010869;28;20112;-79
2021/03/09 07:10:53;;;;;;;769.17;82.65;;;5.30;99.90;;;;;;5027592;28;20136;-80
2021/03/09 07:13:23;;;;;;;713.75;76.95;;;5.30;99.90;;;;;;5017094;28;20054;-81
2021/03/09 07:15:49;;;;;;;580.95;69.07;;;5.40;99.90;;;;;;5015926;28;20145;-80
2021/03/09 07:18:20;;;;;;;514.90;61.58;;;5.40;99.90;;;;;;5015051;28;20103;-80
2021/03/09 07:20:47;;;;;;;512.20;61.50;;;5.40;99.90;;;;;;5020597;28;20681;-79
2021/03/09 07:23:17;;;;;;;470.05;57.67;;;5.40;99.90;;;;;;5034797;28;20388;-79
2021/03/09 07:25:58;;;;;;;356.38;49.50;;;5.50;99.90;;;;;;5032159;28;20037;-79
2021/03/09 07:28:33;;;;;;;409.52;51.70;;;5.50;99.90;;;;;;5033762;28;20119;-79
2021/03/09 07:31:01;;;;;;;410.33;52.05;;;5.50;99.90;;;;;;5042428;28;20604;-81
2021/03/09 07:33:28;;;;;;;404.55;51.45;;;5.50;99.90;;;;;;5019323;28;20109;-81
2021/03/09 07:35:56;;;;;;;219.52;37.95;;;5.50;99.90;;;;;;5021147;28;20052;-81
2021/03/09 07:38:23;;;;;;;275.88;38.47;;;5.60;99.90;;;;;;5036370;28;20072;-81
2021/03/09 07:40:49;;;;;;;257.17;38.95;;;5.60;99.90;;;;;;5031489;28;20470;-80
2021/03/09 07:43:15;;;;;;;329.38;40.70;;;5.60;99.90;;;;;;5025631;28;20367;-83
2021/03/09 07:45:42;;;;;;;230.82;35.20;;;5.60;99.90;;;;;;5021200;28;20049;-83
2021/03/09 07:48:20;;;;;;;278.75;37.72;;;5.70;99.90;;;;;;5035646;28;20033;-83
2021/03/09 07:50:47;;;;;;;184.00;31.98;;;5.70;99.90;;;;;;5025475;28;20038;-82
2021/03/09 07:53:17;;;;;;;199.07;34.80;;;5.70;99.90;;;;;;5036708;28;20507;-82
2021/03/09 07:55:47;;;;;;;225.63;44.30;;;5.70;99.90;;;;;;5038722;28;20473;-81
2021/03/09 07:58:22;;;;;;;176.95;30.88;;;5.70;99.90;;;;;;5015010;28;20046;-81
2021/03/09 08:00:50;;;;;;;196.18;31.52;;;5.80;99.90;;;;;;5015358;28;20115;-81
2021/03/09 08:03:35;;;;;;;166.80;30.65;;;5.80;99.90;;;;;;5026333;28;20462;-80
2021/03/09 08:06:02;;;;;;;191.23;31.65;;;5.90;99.90;;;;;;5018027;28;20041;-80
2021/03/09 08:08:49;;;;;;;224.88;33.15;;;5.90;99.90;;;;;;5014913;28;20056;-80
2021/03/09 08:11:23;;;;;;;212.25;29.58;;;5.90;99.90;;;;;;5032326;28;20069;-82
2021/03/09 08:14:04;;;;;;;213.73;30.40;;;5.90;99.90;;;;;;5015966;28;20060;-81
2021/03/09 08:16:43;;;;;;;180.85;29.77;;;6.00;99.90;;;;;;5030299;28;20041;-82
2021/03/09 08:19:11;;;;;;;210.57;31.17;;;5.90;99.90;;;;;;5023855;28;20053;-82
2021/03/09 08:21:58;;;;;;;193.35;28.52;;;6.00;99.90;;;;;;5019396;28;20051;-82
2021/03/09 08:24:42;;;;;;;159.02;25.85;;;6.00;99.90;;;;;;5029458;28;20115;-81
2021/03/09 08:27:36;;;;;;;136.82;24.45;;;6.00;99.90;;;;;;5034045;28;20433;-81
2021/03/09 08:30:08;;;;;;;138.80;24.17;;;6.00;99.90;;;;;;5015252;28;20060;-81
2021/03/09 08:32:35;;;;;;;106.82;22.02;;;6.00;99.90;;;;;;5017199;28;20034;-81
2021/03/09 08:35:13;;;;;;;97.07;20.85;;;6.00;99.90;;;;;;5033237;28;20037;-80
2021/03/09 08:37:45;;;;;;;122.38;22.50;;;5.90;99.90;;;;;;5031782;28;20056;-81
2021/03/09 08:40:12;;;;;;;109.10;21.67;;;5.90;99.90;;;;;;5035566;28;20044;-81
2021/03/09 08:43:01;;;;;;;112.20;21.90;;;5.90;99.90;;;;;;5026798;28;20045;-81
2021/03/09 08:45:56;;;;;;;102.50;22.45;;;5.90;99.90;;;;;;5011913;28;20113;-81
2021/03/09 08:48:41;;;;;;;101.82;20.10;;;5.90;99.90;;;;;;5020291;28;20116;-81
2021/03/09 08:51:07;;;;;;;;;;;5.90;99.90;;;;;;5032647;28;20049;-80
2021/03/09 08:53:33;;;;;;;82.22;20.67;;;5.90;99.90;;;;;;5022032;28;19975;-81
2021/03/09 08:56:05;;;;;;;94.85;21.20;;;5.90;99.90;;;;;;5027966;28;20099;-81
2021/03/09 08:58:32;;;;;;;132.75;25.50;;;5.90;99.90;;;;;;5018165;28;20042;-81
2021/03/09 09:00:59;;;;;;;136.65;24.85;;;5.90;99.90;;;;;;5020563;28;20045;-81
2021/03/09 09:03:44;;;;;;;106.00;23.30;;;5.90;99.90;;;;;;5010906;28;20073;-81
2021/03/09 09:06:10;;;;;;;101.90;23.23;;;5.90;99.90;;;;;;5035664;28;20390;-81
2021/03/09 09:08:36;;;;;;;124.40;25.25;;;6.00;99.90;;;;;;5015082;28;20068;-80
2021/03/09 09:11:02;;;;;;;140.93;26.52;;;6.00;99.90;;;;;;5032297;28;20037;-80
2021/03/09 09:13:33;;;;;;;139.52;24.90;;;6.00;99.90;;;;;;5034919;28;20144;-80
2021/03/09 09:16:00;;;;;;;99.47;25.35;;;6.00;99.90;;;;;;5026431;28;20068;-80
2021/03/09 09:18:27;;;;;;;121.95;26.50;;;6.00;99.90;;;;;;5036789;28;20049;-80
2021/03/09 09:20:53;;;;;;;197.68;29.45;;;6.10;99.90;;;;;;5025562;28;20555;-80
2021/03/09 09:23:26;;;;;;;121.22;25.10;;;6.10;99.90;;;;;;5019034;28;20073;-80
2021/03/09 09:26:03;;;;;;;121.35;26.13;;;6.10;99.90;;;;;;5020080;28;20061;-80
2021/03/09 09:28:33;;;;;;;109.68;24.05;;;6.10;99.90;;;;;;5018211;28;20091;-80
2021/03/09 09:31:10;;;;;;;117.63;25.02;;;6.10;99.90;;;;;;5027993;28;20041;-80
2021/03/09 09:33:36;;;;;;;75.22;22.42;;;6.10;99.90;;;;;;5027192;28;20049;-81
2021/03/09 09:36:03;;;;;;;103.72;23.70;;;6.10;99.90;;;;;;5035599;28;20119;-81
2021/03/09 09:38:29;;;;;;;82.53;22.58;;;6.10;99.90;;;;;;5039335;28;20029;-80
2021/03/09 09:40:59;;;;;;;92.72;22.35;;;6.10;99.90;;;;;;5026415;28;20084;-80
2021/03/09 09:43:30;;;;;;;101.13;23.40;;;6.10;99.90;;;;;;5037863;28;20053;-80
2021/03/09 09:46:00;;;;;;;97.43;22.60;;;6.10;99.90;;;;;;5035970;28;20033;-81
2021/03/09 09:48:29;;;;;;;128.63;23.65;;;6.10;99.90;;;;;;5018406;28;20049;-81
2021/03/09 09:51:00;;;;;;;89.28;22.58;;;6.20;99.90;;;;;;5020125;28;20166;-80
2021/03/09 09:53:40;;;;;;;64.82;22.70;;;6.20;99.90;;;;;;5037158;28;20133;-80
2021/03/09 09:56:08;;;;;;;129.02;28.08;;;6.20;99.90;;;;;;5035857;28;20061;-80
2021/03/09 09:58:42;;;;;;;94.90;26.60;;;6.20;99.90;;;;;;5036948;28;20124;-81
2021/03/09 10:01:08;;;;;;;118.13;30.00;;;6.20;99.90;;;;;;5033009;28;20203;-81
2021/03/09 10:03:52;;;;;;;88.88;26.60;;;6.20;99.90;;;;;;5032267;28;20100;-81
2021/03/09 10:06:18;;;;;;;86.32;28.23;;;6.20;99.90;;;;;;5020349;28;20063;-81
2021/03/09 10:08:45;;;;;;;92.50;28.80;;;6.20;99.90;;;;;;5025058;28;20388;-81
2021/03/09 10:11:11;;;;;;;72.30;26.25;;;6.20;99.90;;;;;;5037986;28;20081;-81
2021/03/09 10:13:39;;;;;;;68.72;26.88;;;6.20;99.90;;;;;;5033348;28;20042;-81
2021/03/09 10:16:05;;;;;;;92.00;29.60;;;6.20;99.90;;;;;;5037573;28;20129;-81
2021/03/09 10:18:34;;;;;;;92.03;29.60;;;6.20;99.90;;;;;;5020893;28;20508;-81
2021/03/09 10:21:11;;;;;;;93.22;29.50;;;6.30;99.90;;;;;;5049788;28;20513;-81
2021/03/09 10:23:59;;;;;;;68.15;26.52;;;6.30;99.90;;;;;;5037113;28;20038;-81
2021/03/09 10:26:51;;;;;;;67.38;26.58;;;6.20;99.90;;;;;;5041605;28;20049;-81
2021/03/09 10:29:23;;;;;;;66.72;26.90;;;6.30;99.90;;;;;;5018106;28;20077;-81
2021/03/09 10:31:54;;;;;;;69.35;30.25;;;6.20;99.90;;;;;;5016430;28;20379;-80
2021/03/09 10:34:41;;;;;;;62.80;29.05;;;6.20;99.90;;;;;;5026679;28;20042;-80
2021/03/09 10:37:08;;;;;;;79.80;32.90;;;6.20;99.90;;;;;;5025915;28;20034;-80
2021/03/09 10:39:52;;;;;;;76.57;37.08;;;6.30;99.90;;;;;;5026688;28;20395;-80
2021/03/09 10:42:53;;;;;;;91.40;37.70;;;6.20;99.90;;;;;;5019827;28;20048;-83
2021/03/09 10:45:23;;;;;;;70.30;34.35;;;6.20;99.90;;;;;;5017465;28;20081;-80
2021/03/09 10:47:54;;;;;;;61.35;32.88;;;6.20;99.90;;;;;;5032698;28;20045;-80
2021/03/09 10:50:23;;;;;;;73.03;35.33;;;6.20;99.90;;;;;;5048088;28;20046;-81
2021/03/09 10:52:50;;;;;;;64.30;34.75;;;6.20;99.90;;;;;;5010808;28;20136;-81
2021/03/09 10:55:18;;;;;;;71.68;36.75;;;6.20;99.90;;;;;;5032182;28;20107;-82
2021/03/09 10:57:48;;;;;;;79.25;39.40;;;6.20;99.90;;;;;;5030145;28;20469;-82
2021/03/09 11:00:17;;;;;;;57.42;33.65;;;6.20;99.90;;;;;;5033738;28;20398;-82
2021/03/09 11:02:44;;;;;;;47.65;29.80;;;6.30;99.90;;;;;;5030194;28;20046;-83
2021/03/09 11:05:11;;;;;;;49.92;32.13;;;6.30;99.90;;;;;;5013812;28;20049;-81
2021/03/09 11:07:37;;;;;;;43.35;29.95;;;6.40;99.90;;;;;;5030920;28;20338;-81
2021/03/09 11:10:05;;;;;;;53.22;30.88;;;6.40;99.90;;;;;;5012841;28;20057;-82
2021/03/09 11:12:34;;;;;;;43.55;28.27;;;6.40;99.90;;;;;;5029005;28;20030;-81
2021/03/09 11:15:08;;;;;;;45.97;28.25;;;6.40;99.80;;;;;;5045392;28;20045;-81
2021/03/09 11:17:34;;;;;;;46.72;29.42;;;6.40;99.70;;;;;;5019611;28;20550;-81
2021/03/09 11:20:01;;;;;;;56.58;32.90;;;6.40;99.80;;;;;;5033157;28;20050;-82
2021/03/09 11:22:26;;;;;;;51.97;32.50;;;6.40;99.80;;;;;;5033389;28;20045;-82
2021/03/09 11:24:53;;;;;;;59.72;34.60;;;6.40;99.50;;;;;;5015494;28;20137;-80
2021/03/09 11:27:19;;;;;;;52.25;31.48;;;6.50;99.40;;;;;;5038113;28;20037;-81
2021/03/09 11:29:44;;;;;;;51.60;31.75;;;6.50;99.40;;;;;;5032115;28;20508;-81
2021/03/09 11:32:13;;;;;;;71.13;36.95;;;6.60;99.40;;;;;;5017472;28;20077;-81
2021/03/09 11:34:42;;;;;;;64.53;36.95;;;6.50;99.10;;;;;;5046349;28;20418;-82
2021/03/09 11:37:08;;;;;;;55.30;33.70;;;6.60;99.10;;;;;;5036523;28;20041;-81
2021/03/09 11:39:34;;;;;;;62.97;36.08;;;6.50;99.10;;;;;;5023421;28;20033;-82
2021/03/09 11:41:59;;;;;;;61.08;36.28;;;6.40;99.10;;;;;;5034328;28;20041;-82
2021/03/09 11:44:25;;;;;;;64.60;35.72;;;6.50;99.10;;;;;;5037055;28;20037;-81
2021/03/09 11:46:52;;;;;;;78.85;38.60;;;6.50;99.10;;;;;;5019420;28;20050;-82
2021/03/09 11:49:18;;;;;;;61.83;35.85;;;6.50;99.10;;;;;;5017891;28;20406;-82
2021/03/09 11:51:44;;;;;;;78.10;40.58;;;6.50;99.10;;;;;;5025013;28;20496;-81
2021/03/09 11:54:10;;;;;;;58.75;35.25;;;6.60;99.20;;;;;;5035611;28;20061;-82
2021/03/09 11:56:36;;;;;;;54.35;30.90;;;6.60;99.10;;;;;;5031770;28;20053;-81
2021/03/09 11:59:02;;;;;;;56.78;32.20;;;6.50;99.00;;;;;;5019370;28;20045;-81
2021/03/09 12:01:27;;;;;;;66.97;37.00;;;6.40;98.60;;;;;;5028411;28;20480;-81
2021/03/09 12:03:54;;;;;;;56.13;32.83;;;6.50;98.80;;;;;;5038704;28;20041;-81
2021/03/09 12:06:20;;;;;;;47.65;29.15;;;6.50;99.00;;;;;;5029519;28;20108;-82
2021/03/09 12:08:47;;;;;;;48.78;29.98;;;6.50;98.80;;;;;;5017437;28;20062;-82
2021/03/09 12:11:13;;;;;;;41.15;27.05;;;6.50;98.60;;;;;;5017319;28;20114;-79
2021/03/09 12:13:39;;;;;;;43.50;27.52;;;6.40;98.50;;;;;;5028737;28;20041;-79
2021/03/09 12:16:05;;;;;;;44.13;29.15;;;6.40;98.50;;;;;;5021050;28;20128;-79
2021/03/09 12:18:31;;;;;;;45.33;28.70;;;6.40;98.50;;;;;;5027866;28;20561;-79
2021/03/09 12:20:57;;;;;;;46.05;28.42;;;6.40;98.40;;;;;;5029295;28;20045;-80
2021/03/09 12:23:24;;;;;;;41.17;27.33;;;6.40;98.40;;;;;;5020679;28;20041;-80
2021/03/09 12:25:51;;;;;;;41.50;25.17;;;6.40;98.40;;;;;;5027171;28;20495;-80
2021/03/09 12:28:16;;;;;;;42.17;26.17;;;6.40;98.40;;;;;;5029131;28;20033;-80
2021/03/09 12:30:44;;;;;;;48.25;30.98;;;6.40;98.30;;;;;;5047939;28;20107;-79
2021/03/09 12:33:10;;;;;;;37.30;25.38;;;6.40;98.60;;;;;;5024531;28;20081;-79
2021/03/09 12:35:36;;;;;;;38.22;26.70;;;6.50;98.50;;;;;;5015361;28;20100;-79
2021/03/09 12:38:02;;;;;;;33.92;23.70;;;6.50;98.30;;;;;;5024858;28;20045;-80
2021/03/09 12:40:32;;;;;;;34.95;23.20;;;6.40;97.90;;;;;;5014912;28;20049;-80
2021/03/09 12:43:09;;;;;;;29.60;22.27;;;6.50;98.00;;;;;;5037918;28;20045;-81
2021/03/09 12:45:35;;;;;;;30.50;21.40;;;6.50;97.80;;;;;;5013892;28;20046;-79